Time;durP1;ratioP1;P1;durP2;ratioP2;P2;SDS_P1;SDS_P2;PMS_P1;PMS_P2;Temp;Humidity;BMP_temperature;BMP_pressure;BME280_temperature;BME280_humidity;BME280_pressure;Samples;Min_cycle;Max_cycle;Signal;HPM_P1;HPM_P2
2023/07/14 00:00:20;;;;;;;2.83;2.72;;;24.70;77.20;;;;;;5030125;28;20181;-75
2023/07/14 00:02:47;;;;;;;3.17;2.97;;;24.70;76.90;;;;;;5032803;28;20188;-76
2023/07/14 00:05:35;;;;;;;4.53;3.00;;;24.80;77.20;;;;;;5034128;28;20176;-75
2023/07/14 00:08:02;;;;;;;3.05;2.58;;;24.70;77.20;;;;;;5033947;28;20188;-76
2023/07/14 00:10:31;;;;;;;2.67;2.47;;;24.70;77.50;;;;;;5032836;28;20184;-75
2023/07/14 00:13:07;;;;;;;3.63;3.40;;;24.70;77.10;;;;;;5034133;28;20180;-75
2023/07/14 00:15:36;;;;;;;2.30;2.15;;;24.70;77.20;;;;;;5034073;28;20250;-76
2023/07/14 00:18:18;;;;;;;2.58;2.40;;;24.70;77.20;;;;;;5033932;28;20582;-75
2023/07/14 00:20:44;;;;;;;3.30;3.10;;;24.70;76.70;;;;;;5026197;28;20685;-75
2023/07/14 00:23:11;;;;;;;3.28;2.60;;;24.70;77.40;;;;;;5033954;28;20183;-75
2023/07/14 00:25:38;;;;;;;2.75;2.60;;;24.70;77.50;;;;;;5033902;28;20560;-75
2023/07/14 00:28:13;;;;;;;2.90;2.63;;;24.70;77.60;;;;;;5033660;28;20208;-75
2023/07/14 00:30:39;;;;;;;2.78;2.53;;;24.70;77.60;;;;;;5032689;28;20215;-76
2023/07/14 00:33:11;;;;;;;3.00;2.78;;;24.70;77.80;;;;;;5032763;28;20243;-76
2023/07/14 00:35:37;;;;;;;2.55;2.45;;;24.70;77.20;;;;;;5032439;28;20184;-76
2023/07/14 00:38:03;;;;;;;3.33;3.13;;;24.70;77.90;;;;;;5033739;28;20172;-75
2023/07/14 00:40:36;;;;;;;3.00;2.80;;;24.70;78.00;;;;;;5033577;28;20173;-75
2023/07/14 00:43:04;;;;;;;4.57;2.67;;;24.70;77.70;;;;;;5032039;28;20199;-75
2023/07/14 00:45:31;;;;;;;2.92;2.83;;;24.60;78.70;;;;;;5032304;28;20192;-76
2023/07/14 00:48:03;;;;;;;5.53;3.40;;;24.60;78.10;;;;;;5033312;28;20172;-75
2023/07/14 00:50:54;;;;;;;5.82;3.13;;;24.60;78.10;;;;;;5032106;28;20238;-76
2023/07/14 00:53:28;;;;;;;6.72;3.70;;;24.50;79.00;;;;;;5024213;28;20198;-75
2023/07/14 00:56:08;;;;;;;3.42;3.13;;;24.50;79.70;;;;;;5031903;28;20188;-75
2023/07/14 00:58:34;;;;;;;5.03;3.40;;;24.40;82.20;;;;;;5033190;28;20242;-75
2023/07/14 01:01:10;;;;;;;7.03;3.97;;;24.30;81.60;;;;;;5020769;28;20216;-75
2023/07/14 01:03:43;;;;;;;4.63;3.80;;;24.20;83.50;;;;;;5033181;28;20234;-75
2023/07/14 01:06:21;;;;;;;4.68;3.78;;;23.80;84.30;;;;;;5033092;28;20184;-75
2023/07/14 01:09:16;;;;;;;4.35;3.95;;;23.60;84.70;;;;;;5033039;28;20180;-76
2023/07/14 01:11:49;;;;;;;5.40;3.80;;;23.60;84.70;;;;;;5027981;28;20201;-75
2023/07/14 01:14:24;;;;;;;5.85;3.70;;;23.70;81.60;;;;;;5030831;28;20184;-76
2023/07/14 01:16:53;;;;;;;6.90;3.58;;;23.60;84.20;;;;;;5031497;28;20194;-76
2023/07/14 01:19:28;;;;;;;5.85;3.80;;;23.40;83.90;;;;;;5032476;28;20184;-76
2023/07/14 01:22:18;;;;;;;3.20;3.05;;;23.50;83.20;;;;;;5030688;28;20212;-76
2023/07/14 01:25:03;;;;;;;3.47;3.28;;;23.60;81.30;;;;;;5022434;28;20622;-75
2023/07/14 01:27:29;;;;;;;3.90;3.50;;;23.60;81.30;;;;;;5031494;28;20618;-76
2023/07/14 01:29:56;;;;;;;2.95;2.75;;;23.50;82.90;;;;;;5032614;28;20354;-75
2023/07/14 01:32:23;;;;;;;4.20;3.90;;;23.50;83.50;;;;;;5031523;28;20191;-76
2023/07/14 01:34:49;;;;;;;4.78;3.40;;;23.50;82.20;;;;;;5032737;28;20180;-75
2023/07/14 01:37:19;;;;;;;4.45;3.53;;;23.50;82.20;;;;;;5032644;28;20176;-76
2023/07/14 01:39:47;;;;;;;3.95;3.53;;;23.50;83.50;;;;;;5032566;28;20645;-76
2023/07/14 01:42:13;;;;;;;3.35;3.17;;;23.40;84.50;;;;;;5032373;28;20603;-76
2023/07/14 01:44:39;;;;;;;6.95;3.15;;;23.20;85.20;;;;;;5032310;28;20184;-75
2023/07/14 01:47:07;;;;;;;3.60;3.28;;;23.10;85.20;;;;;;5032326;28;20184;-75
2023/07/14 01:49:36;;;;;;;4.82;3.15;;;23.10;84.60;;;;;;5032028;28;20259;-76
2023/07/14 01:52:04;;;;;;;3.40;3.20;;;23.00;84.80;;;;;;5032213;28;20188;-75
2023/07/14 01:54:38;;;;;;;3.35;3.08;;;23.10;84.00;;;;;;5020777;28;20549;-76
2023/07/14 01:57:12;;;;;;;3.28;2.42;;;23.20;82.20;;;;;;5030667;28;20286;-75
2023/07/14 01:59:46;;;;;;;5.05;2.97;;;23.20;82.00;;;;;;5032264;28;20187;-75
2023/07/14 02:02:20;;;;;;;6.28;3.30;;;23.30;81.60;;;;;;5030636;28;20653;-75
2023/07/14 02:04:49;;;;;;;6.63;3.58;;;23.40;81.80;;;;;;5032205;28;20179;-75
2023/07/14 02:07:15;;;;;;;3.67;3.47;;;23.40;82.20;;;;;;5031904;28;20195;-75
2023/07/14 02:09:42;;;;;;;4.88;3.17;;;23.40;82.20;;;;;;5032046;28;20203;-75
2023/07/14 02:12:29;;;;;;;3.50;3.30;;;23.50;82.00;;;;;;5031724;28;20665;-75
2023/07/14 02:15:06;;;;;;;3.08;2.88;;;23.50;82.30;;;;;;5031741;28;20172;-76
2023/07/14 02:17:34;;;;;;;3.40;2.92;;;23.50;81.70;;;;;;5031810;28;20183;-75
2023/07/14 02:20:10;;;;;;;3.60;3.40;;;23.50;82.10;;;;;;5032483;28;20289;-75
2023/07/14 02:22:37;;;;;;;3.83;3.55;;;23.50;82.20;;;;;;5030360;28;20211;-76
2023/07/14 02:25:07;;;;;;;3.72;3.03;;;23.40;82.10;;;;;;5031109;28;20628;-75
2023/07/14 02:27:32;;;;;;;3.50;3.30;;;23.40;82.30;;;;;;5031608;28;20649;-75
2023/07/14 02:30:22;;;;;;;3.88;3.58;;;23.40;84.90;;;;;;5031362;28;20242;-75
2023/07/14 02:32:54;;;;;;;3.38;3.17;;;23.30;82.30;;;;;;5031595;28;20180;-75
2023/07/14 02:35:41;;;;;;;4.32;3.25;;;23.30;82.50;;;;;;5031666;28;20177;-76
2023/07/14 02:38:16;;;;;;;4.22;3.83;;;23.30;83.00;;;;;;5031257;28;20180;-76
2023/07/14 02:40:47;;;;;;;4.15;3.90;;;23.20;84.00;;;;;;5031328;28;20207;-75
2023/07/14 02:43:16;;;;;;;3.50;3.30;;;23.10;83.60;;;;;;5019327;28;20184;-75
2023/07/14 02:45:52;;;;;;;5.90;3.33;;;23.10;85.40;;;;;;5031120;28;20187;-75
2023/07/14 02:48:34;;;;;;;2.88;2.75;;;23.10;83.40;;;;;;5031353;28;20254;-76
2023/07/14 02:51:01;;;;;;;3.80;3.47;;;23.00;84.30;;;;;;5031144;28;20211;-76
2023/07/14 02:53:27;;;;;;;3.85;3.55;;;22.90;84.50;;;;;;5031068;28;20179;-75
2023/07/14 02:55:52;;;;;;;4.80;3.33;;;22.90;84.60;;;;;;5030935;28;20176;-75
2023/07/14 02:58:18;;;;;;;4.25;3.75;;;22.80;85.90;;;;;;5030996;28;20235;-75
2023/07/14 03:00:44;;;;;;;3.63;3.28;;;22.80;84.90;;;;;;5029567;28;20208;-75
2023/07/14 03:03:11;;;;;;;3.30;3.20;;;22.80;84.70;;;;;;5030929;28;20223;-75
2023/07/14 03:05:37;;;;;;;3.60;3.38;;;22.80;84.40;;;;;;5030921;28;20184;-76
2023/07/14 03:08:08;;;;;;;4.18;3.85;;;22.80;84.70;;;;;;5029850;28;20176;-75
2023/07/14 03:10:34;;;;;;;3.53;3.22;;;22.80;83.80;;;;;;5030897;28;20567;-75
2023/07/14 03:13:00;;;;;;;3.70;3.50;;;22.80;85.00;;;;;;5030713;28;20238;-75
2023/07/14 03:15:25;;;;;;;3.88;3.33;;;22.70;84.20;;;;;;5030733;28;20173;-75
2023/07/14 03:17:51;;;;;;;3.72;3.42;;;22.90;83.70;;;;;;5030654;28;20191;-75
2023/07/14 03:20:17;;;;;;;7.80;3.67;;;22.90;83.40;;;;;;5031521;28;20182;-75
2023/07/14 03:22:43;;;;;;;3.28;3.08;;;23.00;83.70;;;;;;5030628;28;20212;-76
2023/07/14 03:25:15;;;;;;;4.43;3.22;;;23.00;84.20;;;;;;5030597;28;20222;-76
2023/07/14 03:27:45;;;;;;;4.35;3.50;;;23.10;83.30;;;;;;5030660;28;20183;-75
2023/07/14 03:30:12;;;;;;;3.20;3.00;;;23.10;83.40;;;;;;5029922;28;20172;-75
2023/07/14 03:32:38;;;;;;;3.60;3.30;;;23.10;84.10;;;;;;5030570;28;20618;-75
2023/07/14 03:35:04;;;;;;;3.67;3.38;;;23.10;83.70;;;;;;5030200;28;20176;-75
2023/07/14 03:37:30;;;;;;;2.95;2.83;;;23.10;83.70;;;;;;5030085;28;20206;-75
2023/07/14 03:39:55;;;;;;;3.65;3.35;;;23.00;84.60;;;;;;5030512;28;20208;-75
2023/07/14 03:42:21;;;;;;;4.07;3.67;;;23.00;83.90;;;;;;5029167;28;20212;-75
2023/07/14 03:44:47;;;;;;;3.45;3.20;;;22.90;86.20;;;;;;5030430;28;20686;-75
2023/07/14 03:47:12;;;;;;;3.03;2.80;;;23.00;83.70;;;;;;5030233;28;20305;-75
2023/07/14 03:49:38;;;;;;;3.28;2.97;;;22.90;80.60;;;;;;5030468;28;20180;-76
2023/07/14 03:52:04;;;;;;;4.40;3.10;;;23.00;78.40;;;;;;5030347;28;20183;-75
2023/07/14 03:54:31;;;;;;;4.00;3.00;;;23.10;77.40;;;;;;5030282;28;20185;-76
2023/07/14 03:56:58;;;;;;;4.47;3.30;;;23.30;77.80;;;;;;5028940;28;20203;-75
2023/07/14 03:59:24;;;;;;;3.45;3.25;;;23.50;81.40;;;;;;5016874;28;20184;-75
2023/07/14 04:01:50;;;;;;;3.30;3.03;;;23.60;81.50;;;;;;5029966;28;20215;-76
2023/07/14 04:04:16;;;;;;;4.07;3.70;;;23.60;81.40;;;;;;5030318;28;20180;-76
2023/07/14 04:06:41;;;;;;;3.72;3.42;;;23.70;82.00;;;;;;5030262;28;20260;-76
2023/07/14 04:09:07;;;;;;;4.10;3.78;;;23.70;82.10;;;;;;5030123;28;20543;-76
2023/07/14 04:11:34;;;;;;;5.80;3.33;;;23.60;82.20;;;;;;5030260;28;20267;-76
2023/07/14 04:14:02;;;;;;;4.00;3.70;;;23.60;82.30;;;;;;5030011;28;20263;-75
2023/07/14 04:16:27;;;;;;;5.00;3.45;;;23.50;82.40;;;;;;5030032;28;20715;-76
2023/07/14 04:18:53;;;;;;;3.60;3.33;;;23.50;82.70;;;;;;5028670;28;20177;-76
2023/07/14 04:21:24;;;;;;;3.63;3.42;;;23.50;82.50;;;;;;5030826;28;20287;-76
2023/07/14 04:23:56;;;;;;;3.60;3.35;;;23.50;82.60;;;;;;5028649;28;20247;-76
2023/07/14 04:26:24;;;;;;;3.70;3.40;;;23.50;82.20;;;;;;5030099;28;20743;-75
2023/07/14 04:28:50;;;;;;;3.38;3.15;;;23.50;82.10;;;;;;5029995;28;20191;-75
2023/07/14 04:31:16;;;;;;;4.45;4.05;;;23.40;82.20;;;;;;5029980;28;20251;-75
2023/07/14 04:33:44;;;;;;;3.17;2.75;;;23.40;81.70;;;;;;5030029;28;20183;-75
2023/07/14 04:37:00;;;;;;;4.18;3.38;;;23.40;78.70;;;;;;5029900;28;20242;-76
2023/07/14 04:39:26;;;;;;;3.70;3.47;;;23.40;78.40;;;;;;5028650;28;20189;-75
2023/07/14 04:41:54;;;;;;;3.85;3.63;;;23.50;80.10;;;;;;5028615;28;20314;-76
2023/07/14 04:44:19;;;;;;;3.58;3.22;;;23.60;80.90;;;;;;5029940;28;20299;-75
2023/07/14 04:46:45;;;;;;;3.70;3.40;;;23.60;81.10;;;;;;5030394;28;20215;-75
2023/07/14 04:49:12;;;;;;;5.82;3.90;;;23.70;80.70;;;;;;5033262;28;20234;-76
2023/07/14 04:51:38;;;;;;;3.85;3.53;;;23.80;80.30;;;;;;5033465;28;20188;-76
2023/07/14 04:54:05;;;;;;;5.75;3.63;;;23.80;81.30;;;;;;5033122;28;20230;-75
2023/07/14 04:56:33;;;;;;;3.92;3.60;;;23.80;79.50;;;;;;5033369;28;20179;-75
2023/07/14 04:58:59;;;;;;;3.05;2.80;;;23.90;78.60;;;;;;5033003;28;20469;-76
2023/07/14 05:01:27;;;;;;;4.00;2.92;;;24.00;78.60;;;;;;5033372;28;20222;-75
2023/07/14 05:03:53;;;;;;;6.40;3.80;;;24.00;78.70;;;;;;5032840;28;20177;-76
2023/07/14 05:06:19;;;;;;;5.22;3.38;;;24.00;78.80;;;;;;5033248;28;20215;-76
2023/07/14 05:08:45;;;;;;;3.72;3.42;;;24.00;78.50;;;;;;5032965;28;20200;-75
2023/07/14 05:11:11;;;;;;;7.75;3.35;;;24.10;78.20;;;;;;5033068;28;20184;-75
2023/07/14 05:13:36;;;;;;;3.75;2.95;;;24.20;77.40;;;;;;5031109;28;20263;-76
2023/07/14 05:16:02;;;;;;;3.58;3.22;;;24.30;77.20;;;;;;5023383;28;20332;-75
2023/07/14 05:18:28;;;;;;;4.65;4.00;;;24.40;77.20;;;;;;5031058;28;20188;-77
2023/07/14 05:20:58;;;;;;;6.35;3.17;;;24.40;76.10;;;;;;5033550;28;20704;-77
2023/07/14 05:23:26;;;;;;;4.07;2.70;;;24.50;76.80;;;;;;5032742;28;20211;-76
2023/07/14 05:25:52;;;;;;;3.10;2.97;;;24.50;76.90;;;;;;5031397;28;20579;-76
2023/07/14 05:28:18;;;;;;;6.43;3.35;;;24.40;77.90;;;;;;5032790;28;20179;-76
2023/07/14 05:30:44;;;;;;;3.72;3.42;;;24.40;78.70;;;;;;5032984;28;20180;-76
2023/07/14 05:33:12;;;;;;;2.90;2.70;;;24.60;77.40;;;;;;5032410;28;20226;-76
2023/07/14 05:35:38;;;;;;;5.05;3.47;;;24.70;78.30;;;;;;5032765;28;20172;-76
2023/07/14 05:38:05;;;;;;;2.95;2.75;;;24.70;77.40;;;;;;5032425;28;20210;-76
2023/07/14 05:40:31;;;;;;;4.65;3.28;;;24.80;78.40;;;;;;5032661;28;20173;-76
2023/07/14 05:42:58;;;;;;;3.20;3.00;;;24.90;78.70;;;;;;5032559;28;20177;-75
2023/07/14 05:45:24;;;;;;;3.72;3.40;;;24.90;78.00;;;;;;5032460;28;20176;-76
2023/07/14 05:47:49;;;;;;;3.13;2.85;;;25.00;77.60;;;;;;5032123;28;20189;-75
2023/07/14 05:50:15;;;;;;;3.50;3.08;;;25.10;79.10;;;;;;5031010;28;20216;-76
2023/07/14 05:52:41;;;;;;;3.35;3.15;;;25.00;78.80;;;;;;5032253;28;20191;-75
2023/07/14 05:55:08;;;;;;;3.38;3.08;;;25.10;78.60;;;;;;5030861;28;20168;-75
2023/07/14 05:57:37;;;;;;;5.60;3.38;;;25.10;77.30;;;;;;5031966;28;20215;-75
2023/07/14 06:00:13;;;;;;;4.68;3.40;;;25.20;77.60;;;;;;5031403;28;20168;-76
2023/07/14 06:02:43;;;;;;;4.07;3.55;;;25.30;78.40;;;;;;5032100;28;20295;-76
2023/07/14 06:05:09;;;;;;;4.15;3.13;;;25.40;77.00;;;;;;5031655;28;20195;-76
2023/07/14 06:07:36;;;;;;;3.20;3.00;;;25.50;76.90;;;;;;5031915;28;20180;-75
2023/07/14 06:10:02;;;;;;;6.43;3.78;;;25.60;76.80;;;;;;5030525;28;20263;-76
2023/07/14 06:12:29;;;;;;;4.43;3.17;;;25.70;76.80;;;;;;5019736;28;20200;-76
2023/07/14 06:14:55;;;;;;;3.63;2.58;;;25.70;77.00;;;;;;5031668;28;20241;-76
2023/07/14 06:17:21;;;;;;;7.32;3.25;;;25.80;77.00;;;;;;5031814;28;20259;-76
2023/07/14 06:19:46;;;;;;;3.58;3.38;;;25.90;76.80;;;;;;5032204;28;20180;-76
2023/07/14 06:22:13;;;;;;;9.00;3.78;;;25.90;77.40;;;;;;5031582;28;20212;-75
2023/07/14 06:24:40;;;;;;;3.00;2.75;;;26.00;76.90;;;;;;5031483;28;20255;-75
2023/07/14 06:27:06;;;;;;;5.45;3.85;;;26.10;76.40;;;;;;5030348;28;20183;-75
2023/07/14 06:29:33;;;;;;;5.63;3.42;;;26.10;76.70;;;;;;5031492;28;20582;-75
2023/07/14 06:32:00;;;;;;;4.10;3.50;;;26.20;76.80;;;;;;5031546;28;20708;-76
2023/07/14 06:34:25;;;;;;;4.38;3.10;;;26.30;76.70;;;;;;5031192;28;20183;-75
2023/07/14 06:36:51;;;;;;;3.97;3.65;;;26.30;76.80;;;;;;5031176;28;20584;-76
2023/07/14 06:39:19;;;;;;;3.60;3.40;;;26.30;77.40;;;;;;5031064;28;20176;-76
2023/07/14 06:41:44;;;;;;;4.13;3.33;;;26.40;77.20;;;;;;5031146;28;20322;-76
2023/07/14 06:44:10;;;;;;;3.30;3.10;;;26.50;77.10;;;;;;5030927;28;20192;-76
2023/07/14 06:46:36;;;;;;;5.28;3.38;;;26.50;76.90;;;;;;5031230;28;20174;-76
2023/07/14 06:49:03;;;;;;;5.38;3.75;;;26.50;76.40;;;;;;5029964;28;20172;-76
2023/07/14 06:51:29;;;;;;;3.72;3.05;;;26.60;76.40;;;;;;5029892;28;20275;-76
2023/07/14 06:53:55;;;;;;;3.50;3.08;;;26.60;76.20;;;;;;5030865;28;20180;-76
2023/07/14 06:56:21;;;;;;;3.97;3.67;;;26.60;76.20;;;;;;5030817;28;20175;-75
2023/07/14 06:58:46;;;;;;;4.82;4.18;;;26.60;76.40;;;;;;5030682;28;20224;-75
2023/07/14 07:01:15;;;;;;;4.18;3.88;;;26.70;76.50;;;;;;5030589;28;20582;-76
2023/07/14 07:03:41;;;;;;;5.20;3.95;;;26.80;75.80;;;;;;5030695;28;20168;-76
2023/07/14 07:06:07;;;;;;;3.70;3.25;;;26.80;75.70;;;;;;5030739;28;20614;-76
2023/07/14 07:08:32;;;;;;;4.57;3.80;;;26.80;75.50;;;;;;5030780;28;20692;-76
2023/07/14 07:10:59;;;;;;;3.75;3.45;;;26.90;76.00;;;;;;5030719;28;20230;-75
2023/07/14 07:13:25;;;;;;;3.63;3.42;;;26.90;75.70;;;;;;5030706;28;20230;-76
2023/07/14 07:15:50;;;;;;;4.45;3.03;;;27.00;75.10;;;;;;5030640;28;20188;-76
2023/07/14 07:18:19;;;;;;;3.58;3.33;;;27.00;74.90;;;;;;5029339;28;20277;-75
2023/07/14 07:20:45;;;;;;;3.67;3.28;;;27.00;74.70;;;;;;5031253;28;20255;-75
2023/07/14 07:23:11;;;;;;;3.65;3.35;;;27.10;74.60;;;;;;5030339;28;20255;-76
2023/07/14 07:25:37;;;;;;;4.53;3.35;;;27.20;74.70;;;;;;5030492;28;20194;-75
2023/07/14 07:28:04;;;;;;;4.22;2.88;;;27.20;74.60;;;;;;5030359;28;20173;-75
2023/07/14 07:30:31;;;;;;;4.70;3.28;;;27.20;75.00;;;;;;5030390;28;20210;-76
2023/07/14 07:32:57;;;;;;;3.42;3.15;;;27.30;75.20;;;;;;5030330;28;20200;-76
2023/07/14 07:35:23;;;;;;;4.43;3.15;;;27.30;75.10;;;;;;5030289;28;20184;-75
2023/07/14 07:37:49;;;;;;;5.30;3.17;;;27.40;74.80;;;;;;5030238;28;20680;-76
2023/07/14 07:40:15;;;;;;;3.28;3.08;;;27.40;74.10;;;;;;5028877;28;20261;-76
2023/07/14 07:42:41;;;;;;;5.13;2.83;;;27.40;74.90;;;;;;5030010;28;20648;-75
2023/07/14 07:45:08;;;;;;;4.05;2.83;;;27.40;74.40;;;;;;5030153;28;20230;-75
2023/07/14 07:47:34;;;;;;;3.85;3.17;;;27.50;74.60;;;;;;5028871;28;20180;-75
2023/07/14 07:49:59;;;;;;;5.80;3.38;;;27.50;76.10;;;;;;5030206;28;20202;-75
2023/07/14 07:52:25;;;;;;;3.20;2.92;;;27.50;74.30;;;;;;5030165;28;20180;-76
2023/07/14 07:54:51;;;;;;;3.35;3.15;;;27.50;75.50;;;;;;5030109;28;20188;-75
2023/07/14 07:57:17;;;;;;;3.67;3.38;;;27.60;74.50;;;;;;5030014;28;20196;-75
2023/07/14 07:59:42;;;;;;;9.30;3.67;;;27.60;74.70;;;;;;5028909;28;20195;-76
2023/07/14 08:02:11;;;;;;;4.00;3.22;;;27.70;75.50;;;;;;5029845;28;20245;-75
2023/07/14 08:04:37;;;;;;;3.28;3.03;;;27.80;76.10;;;;;;5030161;28;20177;-75
2023/07/14 08:07:07;;;;;;;4.32;3.72;;;27.70;75.50;;;;;;5029745;28;20669;-75
2023/07/14 08:09:34;;;;;;;3.75;3.45;;;27.70;73.30;;;;;;5030173;28;20191;-76
2023/07/14 08:12:00;;;;;;;3.47;3.17;;;27.80;73.70;;;;;;5029694;28;20190;-75
2023/07/14 08:14:25;;;;;;;3.33;3.13;;;27.80;73.20;;;;;;5029964;28;20199;-76
2023/07/14 08:16:51;;;;;;;4.03;3.80;;;27.90;72.90;;;;;;5028268;28;20658;-76
2023/07/14 08:19:17;;;;;;;3.63;3.42;;;27.90;73.40;;;;;;5030356;28;20176;-75
2023/07/14 08:21:43;;;;;;;3.75;3.22;;;28.00;72.70;;;;;;5030480;28;20213;-76
2023/07/14 08:24:09;;;;;;;4.55;3.55;;;28.00;72.30;;;;;;5032526;28;21267;-76
2023/07/14 08:26:37;;;;;;;4.18;3.70;;;28.00;72.00;;;;;;5033595;28;20177;-75
2023/07/14 08:29:04;;;;;;;3.47;3.10;;;28.10;72.00;;;;;;5033675;28;20654;-76
2023/07/14 08:31:30;;;;;;;4.25;3.47;;;28.20;71.90;;;;;;5033445;28;20203;-75
2023/07/14 08:33:56;;;;;;;4.55;3.33;;;28.20;71.70;;;;;;5033642;28;20183;-76
2023/07/14 08:36:23;;;;;;;4.53;3.72;;;28.30;72.50;;;;;;5033352;28;20180;-76
2023/07/14 08:38:49;;;;;;;3.85;3.22;;;28.40;71.60;;;;;;5033579;28;20172;-76
2023/07/14 08:41:30;;;;;;;3.90;3.60;;;28.50;71.90;;;;;;5031841;28;20276;-76
2023/07/14 08:44:04;;;;;;;6.00;3.70;;;28.60;70.60;;;;;;5033344;28;20207;-76
2023/07/14 08:46:44;;;;;;;4.13;3.55;;;28.70;69.80;;;;;;5021395;28;20180;-75
2023/07/14 08:49:36;;;;;;;4.72;3.45;;;28.70;69.50;;;;;;5033223;28;20662;-76
2023/07/14 08:52:33;;;;;;;6.20;3.80;;;28.70;69.90;;;;;;5033093;28;20180;-76
2023/07/14 08:55:01;;;;;;;3.53;3.22;;;28.70;69.70;;;;;;5027016;28;20223;-76
2023/07/14 08:57:28;;;;;;;3.97;3.67;;;28.70;69.80;;;;;;5033074;28;20633;-75
2023/07/14 09:00:03;;;;;;;3.97;3.58;;;28.80;70.30;;;;;;5031870;28;20172;-76
2023/07/14 09:02:45;;;;;;;4.07;3.80;;;28.90;70.30;;;;;;5033231;28;20498;-76
2023/07/14 09:05:28;;;;;;;3.97;3.67;;;29.10;70.80;;;;;;5032977;28;20188;-76
2023/07/14 09:07:54;;;;;;;3.75;3.45;;;29.20;71.00;;;;;;5033023;28;20607;-76
2023/07/14 09:10:49;;;;;;;6.97;3.60;;;29.30;69.60;;;;;;5032919;28;20291;-76
2023/07/14 09:13:27;;;;;;;3.80;3.50;;;29.40;69.50;;;;;;5031690;28;20245;-75
2023/07/14 09:15:53;;;;;;;4.35;4.05;;;29.60;70.10;;;;;;5032974;28;20196;-76
2023/07/14 09:18:43;;;;;;;4.90;4.30;;;29.70;70.20;;;;;;5032944;28;20208;-76
2023/07/14 09:21:39;;;;;;;4.10;3.90;;;29.80;69.50;;;;;;5033746;28;20283;-75
2023/07/14 09:24:20;;;;;;;4.70;4.22;;;29.90;68.90;;;;;;5022432;28;20192;-76
2023/07/14 09:26:51;;;;;;;4.32;4.05;;;30.00;68.50;;;;;;5032734;28;20172;-76
2023/07/14 09:29:27;;;;;;;4.13;3.83;;;30.10;67.20;;;;;;5033006;28;20314;-76
2023/07/14 09:32:00;;;;;;;6.25;4.28;;;30.20;67.90;;;;;;5032562;28;20168;-74
2023/07/14 09:34:32;;;;;;;6.95;4.28;;;30.30;67.40;;;;;;5031501;28;20294;-76
2023/07/14 09:36:58;;;;;;;5.65;5.18;;;30.40;67.40;;;;;;5032738;28;20179;-76
2023/07/14 09:39:26;;;;;;;8.63;4.68;;;30.50;66.90;;;;;;5032801;28;20188;-76
2023/07/14 09:41:55;;;;;;;8.35;4.57;;;30.60;66.50;;;;;;5032671;28;20200;-75
2023/07/14 09:44:22;;;;;;;6.75;4.82;;;30.70;66.70;;;;;;5032316;28;20195;-75
2023/07/14 09:46:48;;;;;;;4.25;3.90;;;30.90;65.80;;;;;;5032334;28;20180;-76
2023/07/14 09:49:33;;;;;;;6.03;5.03;;;30.90;66.00;;;;;;5030979;28;20207;-76
2023/07/14 09:52:15;;;;;;;5.18;4.65;;;30.90;65.50;;;;;;5030877;28;20246;-75
2023/07/14 09:55:01;;;;;;;6.88;5.10;;;31.00;65.80;;;;;;5031998;28;20281;-76
2023/07/14 09:57:32;;;;;;;12.40;4.95;;;31.20;65.20;;;;;;5031700;28;20212;-75
2023/07/14 10:00:18;;;;;;;4.50;4.20;;;31.30;65.00;;;;;;5032161;28;20199;-76
2023/07/14 10:02:43;;;;;;;7.57;5.05;;;31.50;65.30;;;;;;5031486;28;20235;-76
2023/07/14 10:05:43;;;;;;;5.85;4.90;;;31.70;65.00;;;;;;5031973;28;20506;-76
2023/07/14 10:08:44;;;;;;;5.00;4.63;;;31.90;66.10;;;;;;5024536;28;20176;-76
2023/07/14 10:11:38;;;;;;;4.90;4.50;;;32.00;65.40;;;;;;5023111;28;20187;-76
2023/07/14 10:14:17;;;;;;;4.88;4.43;;;32.20;65.30;;;;;;5020045;28;20180;-75
2023/07/14 10:16:44;;;;;;;5.40;4.88;;;32.40;64.40;;;;;;5031716;28;20176;-76
2023/07/14 10:19:16;;;;;;;4.50;4.18;;;32.70;64.50;;;;;;5031815;28;20195;-76
2023/07/14 10:21:51;;;;;;;4.53;4.18;;;32.90;63.70;;;;;;5030901;28;20253;-76
2023/07/14 10:24:18;;;;;;;5.55;5.05;;;33.20;62.40;;;;;;5031698;28;20191;-76
2023/07/14 10:26:52;;;;;;;9.10;4.90;;;33.40;60.20;;;;;;5031320;28;20176;-75
2023/07/14 10:29:21;;;;;;;5.93;4.60;;;33.60;60.10;;;;;;5030395;28;20580;-75
2023/07/14 10:31:56;;;;;;;4.75;4.35;;;33.90;60.80;;;;;;5030761;28;20279;-75
2023/07/14 10:34:51;;;;;;;4.88;4.43;;;34.40;59.60;;;;;;5031495;28;20270;-75
2023/07/14 10:37:27;;;;;;;5.75;3.92;;;34.90;59.20;;;;;;5029154;28;20188;-75
2023/07/14 10:40:11;;;;;;;5.25;4.25;;;35.30;58.70;;;;;;5030881;28;20176;-75
2023/07/14 10:42:46;;;;;;;6.38;4.32;;;35.80;56.80;;;;;;5031331;28;20211;-75
2023/07/14 10:45:13;;;;;;;4.40;4.13;;;36.30;55.10;;;;;;5031116;28;20566;-74
2023/07/14 10:48:03;;;;;;;6.68;4.78;;;36.50;57.20;;;;;;5031154;28;20172;-74
2023/07/14 10:50:39;;;;;;;6.80;4.55;;;36.70;56.10;;;;;;5031282;28;20183;-75
2023/07/14 10:53:36;;;;;;;6.40;4.60;;;37.00;55.00;;;;;;5019755;28;20179;-74
2023/07/14 10:56:19;;;;;;;4.45;4.22;;;37.40;53.70;;;;;;5030369;28;20199;-75
2023/07/14 10:58:54;;;;;;;4.70;4.50;;;37.80;54.30;;;;;;5029131;28;20198;-75
2023/07/14 11:01:34;;;;;;;4.32;3.65;;;38.40;51.60;;;;;;5030941;28;20619;-74
2023/07/14 11:04:20;;;;;;;7.20;4.80;;;39.00;50.20;;;;;;5026781;28;20271;-74
2023/07/14 11:06:49;;;;;;;8.10;4.82;;;39.40;50.40;;;;;;5020987;28;20187;-75
2023/07/14 11:09:15;;;;;;;6.38;4.32;;;39.80;48.30;;;;;;5018872;28;20357;-74
2023/07/14 11:12:08;;;;;;;4.47;4.13;;;40.00;50.20;;;;;;5030589;28;20564;-75
2023/07/14 11:14:37;;;;;;;5.25;4.03;;;40.20;49.50;;;;;;5030850;28;20183;-74
2023/07/14 11:17:27;;;;;;;4.82;4.43;;;40.40;49.30;;;;;;5029428;28;20603;-74
2023/07/14 11:20:15;;;;;;;13.45;4.38;;;40.70;47.80;;;;;;5031431;28;20176;-74
2023/07/14 11:23:02;;;;;;;5.22;4.65;;;41.10;47.00;;;;;;5030624;28;20214;-74
2023/07/14 11:25:31;;;;;;;5.20;4.50;;;41.30;46.90;;;;;;5029507;28;20180;-74
2023/07/14 11:28:02;;;;;;;4.82;4.40;;;41.50;46.50;;;;;;5030515;28;20176;-74
2023/07/14 11:30:39;;;;;;;7.13;4.38;;;41.60;46.20;;;;;;5030773;28;20203;-76
2023/07/14 11:33:32;;;;;;;4.53;4.32;;;41.50;46.50;;;;;;5029194;28;20725;-75
2023/07/14 11:36:04;;;;;;;4.47;4.10;;;41.10;47.00;;;;;;5030519;28;20183;-75
2023/07/14 11:38:35;;;;;;;4.53;4.22;;;40.60;49.60;;;;;;5030496;28;20167;-74
2023/07/14 11:41:01;;;;;;;5.10;4.80;;;40.10;49.30;;;;;;5030270;28;20269;-75
2023/07/14 11:43:29;;;;;;;4.43;4.22;;;40.00;50.70;;;;;;5030418;28;20192;-74
2023/07/14 11:46:04;;;;;;;4.70;4.40;;;40.20;50.40;;;;;;5030355;28;20191;-74
2023/07/14 11:48:34;;;;;;;4.47;4.15;;;40.70;48.10;;;;;;5030560;28;20194;-75
2023/07/14 11:51:44;;;;;;;8.23;4.40;;;41.20;49.10;;;;;;5030355;28;20190;-76
2023/07/14 11:54:19;;;;;;;4.50;3.95;;;41.80;47.30;;;;;;5018546;28;20912;-75
2023/07/14 11:57:00;;;;;;;5.38;4.50;;;42.20;47.30;;;;;;5030806;28;20573;-74
2023/07/14 11:59:28;;;;;;;8.80;4.07;;;42.70;45.80;;;;;;5065147;28;20187;-75
2023/07/14 12:01:59;;;;;;;3.78;3.50;;;43.10;46.40;;;;;;5034232;28;20279;-75
2023/07/14 12:04:29;;;;;;;4.70;4.38;;;43.50;46.30;;;;;;5034448;28;20182;-75
2023/07/14 12:07:19;;;;;;;4.40;3.95;;;43.70;45.30;;;;;;5034179;28;20203;-75
2023/07/14 12:10:08;;;;;;;8.52;3.65;;;43.70;45.90;;;;;;5034244;28;20175;-75
2023/07/14 12:12:34;;;;;;;5.63;4.30;;;43.80;44.90;;;;;;5022567;28;20184;-75
2023/07/14 12:15:02;;;;;;;4.43;4.03;;;43.90;48.10;;;;;;5033912;28;20269;-75
2023/07/14 12:17:40;;;;;;;6.28;4.30;;;43.90;47.20;;;;;;5034242;28;20174;-75
2023/07/14 12:20:11;;;;;;;4.47;4.03;;;43.80;45.90;;;;;;5034868;28;20186;-76
2023/07/14 12:22:58;;;;;;;4.53;4.32;;;43.90;45.90;;;;;;5033888;28;20207;-75
2023/07/14 12:25:25;;;;;;;5.70;4.30;;;44.10;45.60;;;;;;5033852;28;20262;-75
2023/07/14 12:27:53;;;;;;;5.05;4.03;;;44.00;43.70;;;;;;5033453;28;20191;-75
2023/07/14 12:30:24;;;;;;;4.22;3.70;;;43.80;44.80;;;;;;5033779;28;20187;-75
2023/07/14 12:32:56;;;;;;;4.63;4.15;;;43.60;45.70;;;;;;5033576;28;20207;-76
2023/07/14 12:35:24;;;;;;;6.78;3.95;;;43.70;45.50;;;;;;5033659;28;20183;-76
2023/07/14 12:37:50;;;;;;;4.18;3.72;;;43.90;45.80;;;;;;5033393;28;20253;-75
2023/07/14 12:40:20;;;;;;;4.60;3.97;;;44.30;45.30;;;;;;5033640;28;20562;-75
2023/07/14 12:42:48;;;;;;;4.72;4.18;;;44.70;44.20;;;;;;5033450;28;20298;-75
2023/07/14 12:45:16;;;;;;;4.32;4.03;;;44.80;45.00;;;;;;5033532;28;20171;-75
2023/07/14 12:47:46;;;;;;;5.40;5.00;;;44.80;44.30;;;;;;5033363;28;20179;-76
2023/07/14 12:50:20;;;;;;;4.15;3.85;;;44.70;43.60;;;;;;5032035;28;20657;-75
2023/07/14 12:52:47;;;;;;;6.60;4.45;;;44.50;44.10;;;;;;5033474;28;20570;-75
2023/07/14 12:55:16;;;;;;;4.35;4.05;;;44.60;45.10;;;;;;5033207;28;20631;-76
2023/07/14 12:57:42;;;;;;;4.75;4.35;;;44.70;44.90;;;;;;5032490;28;20214;-75
2023/07/14 13:00:23;;;;;;;5.95;4.53;;;44.80;44.90;;;;;;5033252;28;20262;-75
2023/07/14 13:02:50;;;;;;;5.35;4.95;;;45.10;43.50;;;;;;5022637;28;20235;-76
2023/07/14 13:05:17;;;;;;;4.55;4.35;;;45.30;43.00;;;;;;5033140;28;20190;-75
2023/07/14 13:07:49;;;;;;;5.88;4.05;;;45.20;42.60;;;;;;5033008;28;20176;-75